sensor_id;sensor_type;location;lat;lon;timestamp;P1;durP1;ratioP1;P2;durP2;ratioP2
59571;SDS011;70118;45.638;11.714;2023-08-21T00:00:08;9.50;;;6.80;;
59571;SDS011;70118;45.638;11.714;2023-08-21T00:02:34;9.13;;;6.75;;
59571;SDS011;70118;45.638;11.714;2023-08-21T00:05:00;9.00;;;6.65;;
59571;SDS011;70118;45.638;11.714;2023-08-21T00:07:25;8.77;;;6.77;;
59571;SDS011;70118;45.638;11.714;2023-08-21T00:09:51;9.68;;;7.30;;
59571;SDS011;70118;45.638;11.714;2023-08-21T00:12:17;8.83;;;6.93;;
59571;SDS011;70118;45.638;11.714;2023-08-21T00:14:43;8.18;;;6.70;;
59571;SDS011;70118;45.638;11.714;2023-08-21T00:17:09;10.10;;;7.38;;
59571;SDS011;70118;45.638;11.714;2023-08-21T00:19:35;8.70;;;7.13;;
59571;SDS011;70118;45.638;11.714;2023-08-21T00:22:00;9.25;;;7.40;;
59571;SDS011;70118;45.638;11.714;2023-08-21T00:24:26;8.47;;;6.90;;
59571;SDS011;70118;45.638;11.714;2023-08-21T00:26:52;11.27;;;7.70;;
59571;SDS011;70118;45.638;11.714;2023-08-21T00:29:18;8.57;;;7.30;;
59571;SDS011;70118;45.638;11.714;2023-08-21T00:31:44;9.10;;;7.33;;
59571;SDS011;70118;45.638;11.714;2023-08-21T00:34:10;8.50;;;6.95;;
59571;SDS011;70118;45.638;11.714;2023-08-21T00:36:36;9.65;;;6.75;;
59571;SDS011;70118;45.638;11.714;2023-08-21T00:39:01;9.07;;;7.10;;
59571;SDS011;70118;45.638;11.714;2023-08-21T00:41:27;8.70;;;7.20;;
59571;SDS011;70118;45.638;11.714;2023-08-21T00:43:53;9.63;;;6.93;;
59571;SDS011;70118;45.638;11.714;2023-08-21T00:46:19;8.93;;;6.73;;
59571;SDS011;70118;45.638;11.714;2023-08-21T00:48:45;8.73;;;7.07;;
59571;SDS011;70118;45.638;11.714;2023-08-21T00:51:11;8.13;;;6.35;;
59571;SDS011;70118;45.638;11.714;2023-08-21T00:53:41;9.30;;;7.07;;
59571;SDS011;70118;45.638;11.714;2023-08-21T00:56:07;11.52;;;7.38;;
59571;SDS011;70118;45.638;11.714;2023-08-21T00:58:34;9.57;;;7.77;;
59571;SDS011;70118;45.638;11.714;2023-08-21T01:01:00;11.55;;;7.70;;
59571;SDS011;70118;45.638;11.714;2023-08-21T01:03:26;10.55;;;8.02;;
59571;SDS011;70118;45.638;11.714;2023-08-21T01:05:52;11.25;;;7.85;;
59571;SDS011;70118;45.638;11.714;2023-08-21T01:13:58;10.05;;;8.02;;
59571;SDS011;70118;45.638;11.714;2023-08-21T01:16:26;9.75;;;8.00;;
59571;SDS011;70118;45.638;11.714;2023-08-21T01:18:53;10.75;;;7.90;;
59571;SDS011;70118;45.638;11.714;2023-08-21T01:21:22;9.57;;;7.30;;
59571;SDS011;70118;45.638;11.714;2023-08-21T01:23:48;9.93;;;7.43;;
59571;SDS011;70118;45.638;11.714;2023-08-21T01:26:14;9.80;;;7.32;;
59571;SDS011;70118;45.638;11.714;2023-08-21T01:28:40;10.50;;;7.53;;
59571;SDS011;70118;45.638;11.714;2023-08-21T01:31:11;8.32;;;7.03;;
59571;SDS011;70118;45.638;11.714;2023-08-21T01:34:01;9.85;;;6.97;;
59571;SDS011;70118;45.638;11.714;2023-08-21T01:36:31;9.02;;;7.25;;
59571;SDS011;70118;45.638;11.714;2023-08-21T01:38:58;8.95;;;7.03;;
59571;SDS011;70118;45.638;11.714;2023-08-21T01:41:24;8.83;;;6.83;;
59571;SDS011;70118;45.638;11.714;2023-08-21T01:43:50;8.05;;;6.78;;
59571;SDS011;70118;45.638;11.714;2023-08-21T01:46:16;10.05;;;7.03;;
59571;SDS011;70118;45.638;11.714;2023-08-21T01:48:43;9.23;;;7.15;;
59571;SDS011;70118;45.638;11.714;2023-08-21T01:51:08;9.20;;;7.47;;
59571;SDS011;70118;45.638;11.714;2023-08-21T01:53:34;8.68;;;6.57;;
59571;SDS011;70118;45.638;11.714;2023-08-21T01:56:00;10.05;;;7.28;;
59571;SDS011;70118;45.638;11.714;2023-08-21T01:58:26;9.57;;;7.50;;
59571;SDS011;70118;45.638;11.714;2023-08-21T02:00:52;9.50;;;7.75;;
59571;SDS011;70118;45.638;11.714;2023-08-21T02:03:18;10.03;;;7.40;;
59571;SDS011;70118;45.638;11.714;2023-08-21T02:05:43;9.63;;;7.88;;
59571;SDS011;70118;45.638;11.714;2023-08-21T02:08:13;8.90;;;7.28;;
59571;SDS011;70118;45.638;11.714;2023-08-21T02:10:51;9.67;;;7.80;;
59571;SDS011;70118;45.638;11.714;2023-08-21T02:13:18;9.20;;;7.45;;
59571;SDS011;70118;45.638;11.714;2023-08-21T02:15:44;9.48;;;7.40;;
59571;SDS011;70118;45.638;11.714;2023-08-21T02:18:10;8.98;;;6.95;;
59571;SDS011;70118;45.638;11.714;2023-08-21T02:20:36;9.33;;;7.00;;
59571;SDS011;70118;45.638;11.714;2023-08-21T02:23:01;8.35;;;7.13;;
59571;SDS011;70118;45.638;11.714;2023-08-21T02:25:29;9.40;;;7.18;;
59571;SDS011;70118;45.638;11.714;2023-08-21T02:27:55;7.97;;;6.67;;
59571;SDS011;70118;45.638;11.714;2023-08-21T02:30:21;9.45;;;7.38;;
59571;SDS011;70118;45.638;11.714;2023-08-21T02:32:50;7.85;;;6.55;;
59571;SDS011;70118;45.638;11.714;2023-08-21T02:35:17;7.68;;;6.57;;
59571;SDS011;70118;45.638;11.714;2023-08-21T02:37:42;7.93;;;6.87;;
59571;SDS011;70118;45.638;11.714;2023-08-21T02:40:08;9.45;;;6.88;;
59571;SDS011;70118;45.638;11.714;2023-08-21T02:42:34;8.57;;;6.93;;
59571;SDS011;70118;45.638;11.714;2023-08-21T02:45:01;8.32;;;6.40;;
59571;SDS011;70118;45.638;11.714;2023-08-21T02:47:29;9.30;;;6.70;;
59571;SDS011;70118;45.638;11.714;2023-08-21T02:49:55;9.18;;;6.85;;
59571;SDS011;70118;45.638;11.714;2023-08-21T02:52:21;8.63;;;6.65;;
59571;SDS011;70118;45.638;11.714;2023-08-21T02:54:47;8.57;;;6.57;;
59571;SDS011;70118;45.638;11.714;2023-08-21T02:57:12;8.40;;;6.95;;
59571;SDS011;70118;45.638;11.714;2023-08-21T02:59:38;8.65;;;7.00;;
59571;SDS011;70118;45.638;11.714;2023-08-21T03:02:04;8.53;;;6.40;;
59571;SDS011;70118;45.638;11.714;2023-08-21T03:04:30;8.07;;;7.15;;
59571;SDS011;70118;45.638;11.714;2023-08-21T03:06:56;8.67;;;7.00;;
59571;SDS011;70118;45.638;11.714;2023-08-21T03:09:21;9.35;;;7.57;;
59571;SDS011;70118;45.638;11.714;2023-08-21T03:11:47;9.23;;;6.88;;
59571;SDS011;70118;45.638;11.714;2023-08-21T03:14:13;9.10;;;6.83;;
59571;SDS011;70118;45.638;11.714;2023-08-21T03:16:39;8.63;;;6.65;;
59571;SDS011;70118;45.638;11.714;2023-08-21T03:19:05;7.93;;;6.77;;
59571;SDS011;70118;45.638;11.714;2023-08-21T03:21:30;9.15;;;7.22;;
59571;SDS011;70118;45.638;11.714;2023-08-21T03:23:57;9.43;;;7.35;;
59571;SDS011;70118;45.638;11.714;2023-08-21T03:26:28;9.50;;;7.15;;
59571;SDS011;70118;45.638;11.714;2023-08-21T03:28:54;9.20;;;7.70;;
59571;SDS011;70118;45.638;11.714;2023-08-21T03:31:20;10.85;;;8.07;;
59571;SDS011;70118;45.638;11.714;2023-08-21T03:33:46;10.55;;;9.20;;
59571;SDS011;70118;45.638;11.714;2023-08-21T03:36:15;10.90;;;8.48;;
59571;SDS011;70118;45.638;11.714;2023-08-21T03:38:40;11.27;;;9.33;;
59571;SDS011;70118;45.638;11.714;2023-08-21T03:41:06;10.27;;;8.40;;
59571;SDS011;70118;45.638;11.714;2023-08-21T03:43:32;10.90;;;9.00;;
59571;SDS011;70118;45.638;11.714;2023-08-21T03:45:58;10.20;;;8.48;;
59571;SDS011;70118;45.638;11.714;2023-08-21T03:48:24;10.45;;;7.93;;
59571;SDS011;70118;45.638;11.714;2023-08-21T03:50:50;10.40;;;8.40;;
59571;SDS011;70118;45.638;11.714;2023-08-21T03:53:16;9.98;;;8.07;;
59571;SDS011;70118;45.638;11.714;2023-08-21T03:55:42;10.40;;;7.65;;
59571;SDS011;70118;45.638;11.714;2023-08-21T03:58:07;9.47;;;8.17;;
59571;SDS011;70118;45.638;11.714;2023-08-21T04:00:33;9.88;;;8.07;;
59571;SDS011;70118;45.638;11.714;2023-08-21T04:02:59;10.80;;;8.20;;
59571;SDS011;70118;45.638;11.714;2023-08-21T04:05:25;10.27;;;8.10;;
59571;SDS011;70118;45.638;11.714;2023-08-21T04:07:51;11.40;;;8.50;;
59571;SDS011;70118;45.638;11.714;2023-08-21T04:10:16;12.23;;;8.47;;
59571;SDS011;70118;45.638;11.714;2023-08-21T04:12:42;12.18;;;8.32;;
59571;SDS011;70118;45.638;11.714;2023-08-21T04:15:08;11.60;;;8.88;;
59571;SDS011;70118;45.638;11.714;2023-08-21T04:17:35;10.13;;;8.07;;
59571;SDS011;70118;45.638;11.714;2023-08-21T04:20:00;10.63;;;8.30;;
59571;SDS011;70118;45.638;11.714;2023-08-21T04:22:26;10.35;;;7.97;;
59571;SDS011;70118;45.638;11.714;2023-08-21T04:24:52;9.20;;;7.87;;
59571;SDS011;70118;45.638;11.714;2023-08-21T04:27:18;9.57;;;8.27;;
59571;SDS011;70118;45.638;11.714;2023-08-21T04:29:44;10.87;;;8.00;;
59571;SDS011;70118;45.638;11.714;2023-08-21T04:32:09;11.70;;;7.78;;
59571;SDS011;70118;45.638;11.714;2023-08-21T04:34:35;11.02;;;7.80;;
59571;SDS011;70118;45.638;11.714;2023-08-21T04:37:01;9.30;;;7.20;;
59571;SDS011;70118;45.638;11.714;2023-08-21T04:39:27;9.00;;;7.18;;
59571;SDS011;70118;45.638;11.714;2023-08-21T04:41:53;9.85;;;7.50;;
59571;SDS011;70118;45.638;11.714;2023-08-21T04:44:19;14.33;;;10.57;;
59571;SDS011;70118;45.638;11.714;2023-08-21T04:46:47;12.98;;;10.63;;
59571;SDS011;70118;45.638;11.714;2023-08-21T04:49:14;14.63;;;10.90;;
59571;SDS011;70118;45.638;11.714;2023-08-21T04:51:40;14.80;;;9.97;;
59571;SDS011;70118;45.638;11.714;2023-08-21T04:54:06;13.75;;;10.10;;
59571;SDS011;70118;45.638;11.714;2023-08-21T04:56:31;10.70;;;8.60;;
59571;SDS011;70118;45.638;11.714;2023-08-21T04:58:57;11.13;;;9.03;;
59571;SDS011;70118;45.638;11.714;2023-08-21T05:01:23;12.50;;;9.68;;
59571;SDS011;70118;45.638;11.714;2023-08-21T05:03:50;11.15;;;9.00;;
59571;SDS011;70118;45.638;11.714;2023-08-21T05:06:17;12.70;;;10.05;;
59571;SDS011;70118;45.638;11.714;2023-08-21T05:08:43;10.97;;;8.80;;
59571;SDS011;70118;45.638;11.714;2023-08-21T05:11:09;10.63;;;7.72;;
59571;SDS011;70118;45.638;11.714;2023-08-21T05:13:35;9.50;;;6.75;;
59571;SDS011;70118;45.638;11.714;2023-08-21T05:16:01;9.73;;;7.83;;
59571;SDS011;70118;45.638;11.714;2023-08-21T05:18:27;9.23;;;7.80;;
59571;SDS011;70118;45.638;11.714;2023-08-21T05:20:54;10.15;;;7.75;;
59571;SDS011;70118;45.638;11.714;2023-08-21T05:23:20;10.27;;;7.45;;
59571;SDS011;70118;45.638;11.714;2023-08-21T05:25:48;10.77;;;8.13;;
59571;SDS011;70118;45.638;11.714;2023-08-21T05:28:15;9.75;;;7.53;;
59571;SDS011;70118;45.638;11.714;2023-08-21T05:30:41;9.98;;;7.07;;
59571;SDS011;70118;45.638;11.714;2023-08-21T05:33:07;9.40;;;7.20;;
59571;SDS011;70118;45.638;11.714;2023-08-21T05:35:35;9.77;;;8.25;;
59571;SDS011;70118;45.638;11.714;2023-08-21T05:38:04;14.88;;;10.60;;
59571;SDS011;70118;45.638;11.714;2023-08-21T05:40:31;13.68;;;10.25;;
59571;SDS011;70118;45.638;11.714;2023-08-21T05:42:57;11.00;;;7.87;;
59571;SDS011;70118;45.638;11.714;2023-08-21T05:45:23;10.35;;;8.27;;
59571;SDS011;70118;45.638;11.714;2023-08-21T05:47:49;10.25;;;8.30;;
59571;SDS011;70118;45.638;11.714;2023-08-21T05:50:14;10.33;;;8.00;;
59571;SDS011;70118;45.638;11.714;2023-08-21T05:52:40;9.50;;;7.85;;
59571;SDS011;70118;45.638;11.714;2023-08-21T05:55:06;13.48;;;8.32;;
59571;SDS011;70118;45.638;11.714;2023-08-21T05:57:32;10.07;;;8.10;;
59571;SDS011;70118;45.638;11.714;2023-08-21T05:59:58;10.13;;;7.40;;
59571;SDS011;70118;45.638;11.714;2023-08-21T06:02:24;10.15;;;8.07;;
59571;SDS011;70118;45.638;11.714;2023-08-21T06:04:50;12.20;;;8.18;;
59571;SDS011;70118;45.638;11.714;2023-08-21T06:07:16;9.87;;;8.27;;
59571;SDS011;70118;45.638;11.714;2023-08-21T06:09:42;9.27;;;7.00;;
59571;SDS011;70118;45.638;11.714;2023-08-21T06:12:08;8.73;;;7.10;;
59571;SDS011;70118;45.638;11.714;2023-08-21T06:14:34;8.77;;;7.37;;
59571;SDS011;70118;45.638;11.714;2023-08-21T06:17:01;11.82;;;7.03;;
59571;SDS011;70118;45.638;11.714;2023-08-21T06:19:27;9.80;;;7.25;;
59571;SDS011;70118;45.638;11.714;2023-08-21T06:21:54;9.10;;;7.50;;
59571;SDS011;70118;45.638;11.714;2023-08-21T06:24:21;8.95;;;7.47;;
59571;SDS011;70118;45.638;11.714;2023-08-21T06:26:47;9.57;;;7.67;;
59571;SDS011;70118;45.638;11.714;2023-08-21T06:29:13;10.68;;;7.53;;
59571;SDS011;70118;45.638;11.714;2023-08-21T06:31:39;9.10;;;7.35;;
59571;SDS011;70118;45.638;11.714;2023-08-21T06:34:05;9.33;;;7.03;;
59571;SDS011;70118;45.638;11.714;2023-08-21T06:36:31;10.80;;;7.65;;
59571;SDS011;70118;45.638;11.714;2023-08-21T06:38:57;10.90;;;7.32;;
59571;SDS011;70118;45.638;11.714;2023-08-21T06:41:22;9.67;;;7.73;;
59571;SDS011;70118;45.638;11.714;2023-08-21T06:43:50;10.95;;;7.70;;
59571;SDS011;70118;45.638;11.714;2023-08-21T06:46:16;9.43;;;7.30;;
59571;SDS011;70118;45.638;11.714;2023-08-21T06:48:42;10.80;;;8.40;;
59571;SDS011;70118;45.638;11.714;2023-08-21T06:51:08;9.60;;;7.13;;
59571;SDS011;70118;45.638;11.714;2023-08-21T06:53:35;9.65;;;8.40;;
59571;SDS011;70118;45.638;11.714;2023-08-21T06:56:02;10.05;;;7.25;;
59571;SDS011;70118;45.638;11.714;2023-08-21T06:58:28;10.30;;;7.47;;
59571;SDS011;70118;45.638;11.714;2023-08-21T07:00:54;9.07;;;7.13;;
59571;SDS011;70118;45.638;11.714;2023-08-21T07:03:21;8.80;;;7.20;;
59571;SDS011;70118;45.638;11.714;2023-08-21T07:05:53;10.45;;;7.45;;
59571;SDS011;70118;45.638;11.714;2023-08-21T07:08:22;10.18;;;7.07;;
59571;SDS011;70118;45.638;11.714;2023-08-21T07:10:49;8.70;;;6.72;;
59571;SDS011;70118;45.638;11.714;2023-08-21T07:13:15;9.90;;;6.57;;
59571;SDS011;70118;45.638;11.714;2023-08-21T07:15:41;8.15;;;6.38;;
59571;SDS011;70118;45.638;11.714;2023-08-21T07:18:07;8.40;;;6.88;;
59571;SDS011;70118;45.638;11.714;2023-08-21T07:20:33;8.60;;;6.63;;
59571;SDS011;70118;45.638;11.714;2023-08-21T07:22:59;9.93;;;7.07;;
59571;SDS011;70118;45.638;11.714;2023-08-21T07:25:25;9.18;;;6.75;;
59571;SDS011;70118;45.638;11.714;2023-08-21T07:27:53;9.18;;;6.90;;
59571;SDS011;70118;45.638;11.714;2023-08-21T07:30:21;8.18;;;6.38;;
59571;SDS011;70118;45.638;11.714;2023-08-21T07:32:52;10.52;;;6.70;;
59571;SDS011;70118;45.638;11.714;2023-08-21T07:35:19;9.23;;;6.90;;
59571;SDS011;70118;45.638;11.714;2023-08-21T07:37:46;8.80;;;6.28;;
59571;SDS011;70118;45.638;11.714;2023-08-21T07:40:12;7.47;;;6.05;;
59571;SDS011;70118;45.638;11.714;2023-08-21T07:42:39;7.93;;;6.28;;
59571;SDS011;70118;45.638;11.714;2023-08-21T07:45:08;9.80;;;6.93;;
59571;SDS011;70118;45.638;11.714;2023-08-21T07:47:35;8.77;;;6.27;;
59571;SDS011;70118;45.638;11.714;2023-08-21T07:50:02;8.70;;;6.72;;
59571;SDS011;70118;45.638;11.714;2023-08-21T07:52:32;7.57;;;6.05;;
59571;SDS011;70118;45.638;11.714;2023-08-21T07:54:59;9.48;;;6.63;;
59571;SDS011;70118;45.638;11.714;2023-08-21T07:57:28;9.33;;;6.60;;
59571;SDS011;70118;45.638;11.714;2023-08-21T07:59:54;7.85;;;6.47;;
59571;SDS011;70118;45.638;11.714;2023-08-21T08:02:20;8.95;;;6.50;;
59571;SDS011;70118;45.638;11.714;2023-08-21T08:04:47;8.55;;;5.95;;
59571;SDS011;70118;45.638;11.714;2023-08-21T08:07:13;8.65;;;6.47;;
59571;SDS011;70118;45.638;11.714;2023-08-21T08:09:39;8.10;;;6.17;;
59571;SDS011;70118;45.638;11.714;2023-08-21T08:12:05;8.13;;;6.65;;
59571;SDS011;70118;45.638;11.714;2023-08-21T08:14:32;8.50;;;6.03;;
59571;SDS011;70118;45.638;11.714;2023-08-21T08:16:58;7.70;;;6.45;;
59571;SDS011;70118;45.638;11.714;2023-08-21T08:19:24;7.60;;;6.00;;
59571;SDS011;70118;45.638;11.714;2023-08-21T08:21:51;7.63;;;6.22;;
59571;SDS011;70118;45.638;11.714;2023-08-21T08:24:16;8.95;;;6.40;;
59571;SDS011;70118;45.638;11.714;2023-08-21T08:26:42;8.52;;;6.47;;
59571;SDS011;70118;45.638;11.714;2023-08-21T08:29:09;8.47;;;6.43;;
59571;SDS011;70118;45.638;11.714;2023-08-21T08:31:35;8.15;;;6.13;;
59571;SDS011;70118;45.638;11.714;2023-08-21T08:34:01;8.18;;;5.97;;
59571;SDS011;70118;45.638;11.714;2023-08-21T08:36:27;8.30;;;6.55;;
59571;SDS011;70118;45.638;11.714;2023-08-21T08:38:52;7.40;;;6.30;;
59571;SDS011;70118;45.638;11.714;2023-08-21T08:41:24;7.97;;;6.05;;
59571;SDS011;70118;45.638;11.714;2023-08-21T08:43:55;8.55;;;6.40;;
59571;SDS011;70118;45.638;11.714;2023-08-21T08:46:23;8.13;;;6.25;;
59571;SDS011;70118;45.638;11.714;2023-08-21T08:48:53;8.20;;;6.03;;
59571;SDS011;70118;45.638;11.714;2023-08-21T08:51:20;7.90;;;6.20;;
59571;SDS011;70118;45.638;11.714;2023-08-21T08:53:47;8.45;;;6.70;;
59571;SDS011;70118;45.638;11.714;2023-08-21T08:56:13;8.23;;;6.40;;
59571;SDS011;70118;45.638;11.714;2023-08-21T08:58:39;7.88;;;5.97;;
59571;SDS011;70118;45.638;11.714;2023-08-21T09:01:08;7.38;;;6.32;;
59571;SDS011;70118;45.638;11.714;2023-08-21T09:03:38;8.83;;;7.00;;
59571;SDS011;70118;45.638;11.714;2023-08-21T09:06:04;7.93;;;6.40;;
59571;SDS011;70118;45.638;11.714;2023-08-21T09:08:30;8.40;;;6.55;;
59571;SDS011;70118;45.638;11.714;2023-08-21T09:10:56;7.50;;;6.35;;
59571;SDS011;70118;45.638;11.714;2023-08-21T09:13:27;9.37;;;6.67;;
59571;SDS011;70118;45.638;11.714;2023-08-21T09:15:54;8.70;;;6.68;;
59571;SDS011;70118;45.638;11.714;2023-08-21T09:18:21;7.78;;;6.43;;
59571;SDS011;70118;45.638;11.714;2023-08-21T09:20:47;8.13;;;6.28;;
59571;SDS011;70118;45.638;11.714;2023-08-21T09:23:14;9.60;;;6.82;;
59571;SDS011;70118;45.638;11.714;2023-08-21T09:25:45;7.77;;;6.57;;
59571;SDS011;70118;45.638;11.714;2023-08-21T09:28:13;8.60;;;6.85;;
59571;SDS011;70118;45.638;11.714;2023-08-21T09:30:43;8.95;;;7.05;;
59571;SDS011;70118;45.638;11.714;2023-08-21T09:33:11;9.05;;;6.82;;
59571;SDS011;70118;45.638;11.714;2023-08-21T09:35:37;8.25;;;6.95;;
59571;SDS011;70118;45.638;11.714;2023-08-21T09:38:03;8.47;;;6.90;;
59571;SDS011;70118;45.638;11.714;2023-08-21T09:40:29;8.93;;;7.22;;
59571;SDS011;70118;45.638;11.714;2023-08-21T09:42:55;8.48;;;6.85;;
59571;SDS011;70118;45.638;11.714;2023-08-21T09:45:22;8.43;;;6.85;;
59571;SDS011;70118;45.638;11.714;2023-08-21T09:47:49;8.68;;;7.30;;
59571;SDS011;70118;45.638;11.714;2023-08-21T09:50:17;9.00;;;7.40;;
59571;SDS011;70118;45.638;11.714;2023-08-21T09:52:43;9.30;;;7.50;;
59571;SDS011;70118;45.638;11.714;2023-08-21T09:55:10;9.48;;;7.57;;
59571;SDS011;70118;45.638;11.714;2023-08-21T09:57:40;9.35;;;8.32;;
59571;SDS011;70118;45.638;11.714;2023-08-21T10:00:07;9.25;;;8.02;;
59571;SDS011;70118;45.638;11.714;2023-08-21T10:02:43;9.20;;;7.80;;
59571;SDS011;70118;45.638;11.714;2023-08-21T10:05:18;10.27;;;8.48;;
59571;SDS011;70118;45.638;11.714;2023-08-21T10:07:48;9.77;;;8.55;;
59571;SDS011;70118;45.638;11.714;2023-08-21T10:10:16;10.20;;;9.10;;
59571;SDS011;70118;45.638;11.714;2023-08-21T10:12:42;10.68;;;9.10;;
59571;SDS011;70118;45.638;11.714;2023-08-21T10:15:08;13.37;;;8.90;;
59571;SDS011;70118;45.638;11.714;2023-08-21T10:17:37;10.52;;;9.40;;
59571;SDS011;70118;45.638;11.714;2023-08-21T10:20:04;10.85;;;9.27;;
59571;SDS011;70118;45.638;11.714;2023-08-21T10:25:17;12.98;;;9.63;;
59571;SDS011;70118;45.638;11.714;2023-08-21T10:28:05;10.20;;;9.03;;
59571;SDS011;70118;45.638;11.714;2023-08-21T10:30:32;11.20;;;10.02;;
59571;SDS011;70118;45.638;11.714;2023-08-21T10:32:58;11.45;;;9.40;;
59571;SDS011;70118;45.638;11.714;2023-08-21T10:35:28;10.82;;;9.60;;
59571;SDS011;70118;45.638;11.714;2023-08-21T10:38:08;10.88;;;9.50;;
59571;SDS011;70118;45.638;11.714;2023-08-21T10:40:41;12.23;;;9.67;;
59571;SDS011;70118;45.638;11.714;2023-08-21T10:43:36;10.40;;;9.30;;
59571;SDS011;70118;45.638;11.714;2023-08-21T10:46:07;11.40;;;9.98;;
59571;SDS011;70118;45.638;11.714;2023-08-21T10:48:34;10.40;;;9.23;;
59571;SDS011;70118;45.638;11.714;2023-08-21T10:51:04;11.02;;;9.15;;
59571;SDS011;70118;45.638;11.714;2023-08-21T10:53:32;11.80;;;9.70;;
59571;SDS011;70118;45.638;11.714;2023-08-21T10:56:04;10.43;;;9.32;;
59571;SDS011;70118;45.638;11.714;2023-08-21T10:58:44;10.07;;;9.00;;
59571;SDS011;70118;45.638;11.714;2023-08-21T11:01:16;9.93;;;8.30;;
59571;SDS011;70118;45.638;11.714;2023-08-21T11:03:46;10.57;;;8.77;;
59571;SDS011;70118;45.638;11.714;2023-08-21T11:06:18;10.00;;;8.20;;
59571;SDS011;70118;45.638;11.714;2023-08-21T11:08:44;9.25;;;8.25;;
59571;SDS011;70118;45.638;11.714;2023-08-21T11:11:10;9.23;;;8.05;;
59571;SDS011;70118;45.638;11.714;2023-08-21T11:13:36;12.40;;;8.35;;
59571;SDS011;70118;45.638;11.714;2023-08-21T11:16:03;10.33;;;8.50;;
59571;SDS011;70118;45.638;11.714;2023-08-21T11:18:34;10.57;;;8.38;;
59571;SDS011;70118;45.638;11.714;2023-08-21T11:21:06;10.10;;;8.32;;
59571;SDS011;70118;45.638;11.714;2023-08-21T11:23:40;9.45;;;8.05;;
59571;SDS011;70118;45.638;11.714;2023-08-21T11:26:09;11.00;;;8.37;;
59571;SDS011;70118;45.638;11.714;2023-08-21T11:28:36;9.73;;;8.07;;
59571;SDS011;70118;45.638;11.714;2023-08-21T11:31:06;9.25;;;8.20;;
59571;SDS011;70118;45.638;11.714;2023-08-21T11:33:32;10.07;;;8.60;;
59571;SDS011;70118;45.638;11.714;2023-08-21T11:35:58;10.50;;;8.48;;
59571;SDS011;70118;45.638;11.714;2023-08-21T11:38:26;8.80;;;7.90;;
59571;SDS011;70118;45.638;11.714;2023-08-21T11:40:58;10.68;;;7.45;;
59571;SDS011;70118;45.638;11.714;2023-08-21T11:43:36;10.95;;;8.48;;
59571;SDS011;70118;45.638;11.714;2023-08-21T11:46:03;10.52;;;7.80;;
59571;SDS011;70118;45.638;11.714;2023-08-21T11:48:33;9.65;;;7.88;;
59571;SDS011;70118;45.638;11.714;2023-08-21T11:51:02;9.57;;;8.20;;
59571;SDS011;70118;45.638;11.714;2023-08-21T11:53:38;10.43;;;8.18;;
59571;SDS011;70118;45.638;11.714;2023-08-21T11:56:14;9.20;;;7.93;;
59571;SDS011;70118;45.638;11.714;2023-08-21T11:58:42;9.52;;;8.07;;
59571;SDS011;70118;45.638;11.714;2023-08-21T12:01:10;9.82;;;8.60;;
59571;SDS011;70118;45.638;11.714;2023-08-21T12:03:41;10.90;;;8.23;;
59571;SDS011;70118;45.638;11.714;2023-08-21T12:06:10;10.52;;;8.10;;
59571;SDS011;70118;45.638;11.714;2023-08-21T12:08:37;10.50;;;8.07;;
59571;SDS011;70118;45.638;11.714;2023-08-21T12:11:04;9.57;;;7.85;;
59571;SDS011;70118;45.638;11.714;2023-08-21T12:13:30;10.33;;;7.87;;
59571;SDS011;70118;45.638;11.714;2023-08-21T12:15:56;9.05;;;7.78;;
59571;SDS011;70118;45.638;11.714;2023-08-21T12:18:22;11.25;;;8.23;;
59571;SDS011;70118;45.638;11.714;2023-08-21T12:20:48;9.52;;;7.47;;
59571;SDS011;70118;45.638;11.714;2023-08-21T12:23:14;10.23;;;8.00;;
59571;SDS011;70118;45.638;11.714;2023-08-21T12:25:40;9.77;;;7.55;;
59571;SDS011;70118;45.638;11.714;2023-08-21T12:28:08;9.60;;;7.55;;
59571;SDS011;70118;45.638;11.714;2023-08-21T12:30:37;10.45;;;7.60;;
59571;SDS011;70118;45.638;11.714;2023-08-21T12:33:04;9.97;;;7.53;;
59571;SDS011;70118;45.638;11.714;2023-08-21T12:35:33;9.30;;;7.53;;
59571;SDS011;70118;45.638;11.714;2023-08-21T12:38:09;9.15;;;7.50;;
59571;SDS011;70118;45.638;11.714;2023-08-21T12:40:37;9.43;;;7.68;;
59571;SDS011;70118;45.638;11.714;2023-08-21T12:43:04;10.63;;;8.03;;
59571;SDS011;70118;45.638;11.714;2023-08-21T12:45:30;11.32;;;8.13;;
59571;SDS011;70118;45.638;11.714;2023-08-21T12:47:56;9.52;;;7.72;;
59571;SDS011;70118;45.638;11.714;2023-08-21T12:50:21;9.43;;;7.83;;
59571;SDS011;70118;45.638;11.714;2023-08-21T12:52:47;9.07;;;7.32;;
59571;SDS011;70118;45.638;11.714;2023-08-21T12:55:13;9.97;;;7.83;;
59571;SDS011;70118;45.638;11.714;2023-08-21T12:57:39;10.15;;;8.02;;
59571;SDS011;70118;45.638;11.714;2023-08-21T13:00:05;9.80;;;7.70;;
59571;SDS011;70118;45.638;11.714;2023-08-21T13:02:31;10.00;;;7.85;;
59571;SDS011;70118;45.638;11.714;2023-08-21T13:04:57;9.40;;;7.70;;
59571;SDS011;70118;45.638;11.714;2023-08-21T13:07:24;10.40;;;7.60;;
59571;SDS011;70118;45.638;11.714;2023-08-21T13:09:50;9.90;;;7.72;;
59571;SDS011;70118;45.638;11.714;2023-08-21T13:12:16;8.80;;;7.27;;
59571;SDS011;70118;45.638;11.714;2023-08-21T13:14:47;9.93;;;8.52;;
59571;SDS011;70118;45.638;11.714;2023-08-21T13:17:14;10.38;;;8.02;;
59571;SDS011;70118;45.638;11.714;2023-08-21T13:19:40;9.25;;;7.97;;
59571;SDS011;70118;45.638;11.714;2023-08-21T13:22:06;8.70;;;7.63;;
59571;SDS011;70118;45.638;11.714;2023-08-21T13:24:33;9.80;;;8.40;;
59571;SDS011;70118;45.638;11.714;2023-08-21T13:26:59;11.25;;;8.80;;
59571;SDS011;70118;45.638;11.714;2023-08-21T13:29:26;8.98;;;7.78;;
59571;SDS011;70118;45.638;11.714;2023-08-21T13:31:57;9.55;;;7.95;;
59571;SDS011;70118;45.638;11.714;2023-08-21T13:34:26;9.68;;;8.30;;
59571;SDS011;70118;45.638;11.714;2023-08-21T13:36:53;9.30;;;8.03;;
59571;SDS011;70118;45.638;11.714;2023-08-21T13:39:20;8.38;;;7.20;;
59571;SDS011;70118;45.638;11.714;2023-08-21T13:41:48;9.02;;;7.78;;
59571;SDS011;70118;45.638;11.714;2023-08-21T13:44:16;10.07;;;8.40;;
59571;SDS011;70118;45.638;11.714;2023-08-21T13:46:46;10.15;;;8.60;;
59571;SDS011;70118;45.638;11.714;2023-08-21T13:49:13;10.40;;;8.40;;
59571;SDS011;70118;45.638;11.714;2023-08-21T13:51:40;10.63;;;8.65;;
59571;SDS011;70118;45.638;11.714;2023-08-21T13:54:08;10.65;;;8.52;;
59571;SDS011;70118;45.638;11.714;2023-08-21T13:56:42;10.07;;;8.20;;
59571;SDS011;70118;45.638;11.714;2023-08-21T13:59:09;10.17;;;8.43;;
59571;SDS011;70118;45.638;11.714;2023-08-21T14:01:35;11.18;;;8.70;;
59571;SDS011;70118;45.638;11.714;2023-08-21T14:04:01;9.90;;;8.15;;
59571;SDS011;70118;45.638;11.714;2023-08-21T14:06:30;10.20;;;8.53;;
59571;SDS011;70118;45.638;11.714;2023-08-21T14:08:56;10.65;;;8.57;;
59571;SDS011;70118;45.638;11.714;2023-08-21T14:11:21;10.63;;;9.10;;
59571;SDS011;70118;45.638;11.714;2023-08-21T14:13:48;10.25;;;9.00;;
59571;SDS011;70118;45.638;11.714;2023-08-21T14:16:14;10.23;;;8.67;;
59571;SDS011;70118;45.638;11.714;2023-08-21T14:18:40;10.25;;;8.52;;
59571;SDS011;70118;45.638;11.714;2023-08-21T14:21:05;9.95;;;8.80;;
59571;SDS011;70118;45.638;11.714;2023-08-21T14:23:31;11.03;;;9.00;;
59571;SDS011;70118;45.638;11.714;2023-08-21T14:25:57;10.95;;;8.98;;
59571;SDS011;70118;45.638;11.714;2023-08-21T14:28:23;10.27;;;9.18;;
59571;SDS011;70118;45.638;11.714;2023-08-21T14:30:49;10.50;;;8.73;;
59571;SDS011;70118;45.638;11.714;2023-08-21T14:33:17;10.48;;;8.90;;
59571;SDS011;70118;45.638;11.714;2023-08-21T14:35:43;10.48;;;9.05;;